sensor_id;sensor_type;location;lat;lon;timestamp;P1;durP1;ratioP1;P2;durP2;ratioP2
74974;SDS011;68459;50.836;19.138;2023-11-18T00:01:12;6.20;;;3.17;;
74974;SDS011;68459;50.836;19.138;2023-11-18T00:04:18;6.88;;;3.20;;
74974;SDS011;68459;50.836;19.138;2023-11-18T00:07:22;6.65;;;3.70;;
74974;SDS011;68459;50.836;19.138;2023-11-18T00:10:27;5.93;;;3.37;;
74974;SDS011;68459;50.836;19.138;2023-11-18T00:13:31;6.10;;;3.40;;
74974;SDS011;68459;50.836;19.138;2023-11-18T00:16:35;5.47;;;3.35;;
74974;SDS011;68459;50.836;19.138;2023-11-18T00:19:39;6.55;;;3.55;;
74974;SDS011;68459;50.836;19.138;2023-11-18T00:22:43;6.50;;;3.30;;
74974;SDS011;68459;50.836;19.138;2023-11-18T00:25:48;7.15;;;3.42;;
74974;SDS011;68459;50.836;19.138;2023-11-18T00:28:54;5.90;;;3.08;;
74974;SDS011;68459;50.836;19.138;2023-11-18T00:31:58;4.47;;;2.50;;
74974;SDS011;68459;50.836;19.138;2023-11-18T00:35:02;4.70;;;3.00;;
74974;SDS011;68459;50.836;19.138;2023-11-18T00:38:06;4.78;;;2.70;;
74974;SDS011;68459;50.836;19.138;2023-11-18T00:41:11;4.17;;;2.77;;
74974;SDS011;68459;50.836;19.138;2023-11-18T00:44:15;4.18;;;2.65;;
74974;SDS011;68459;50.836;19.138;2023-11-18T00:47:19;5.47;;;3.05;;
74974;SDS011;68459;50.836;19.138;2023-11-18T00:50:25;4.75;;;2.80;;
74974;SDS011;68459;50.836;19.138;2023-11-18T00:53:28;7.47;;;3.03;;
74974;SDS011;68459;50.836;19.138;2023-11-18T00:56:33;5.13;;;2.70;;
74974;SDS011;68459;50.836;19.138;2023-11-18T00:59:41;4.28;;;2.45;;
74974;SDS011;68459;50.836;19.138;2023-11-18T01:02:46;4.93;;;2.80;;
74974;SDS011;68459;50.836;19.138;2023-11-18T01:05:52;4.72;;;2.60;;
74974;SDS011;68459;50.836;19.138;2023-11-18T01:08:56;3.60;;;2.10;;
74974;SDS011;68459;50.836;19.138;2023-11-18T01:12:01;4.73;;;2.53;;
74974;SDS011;68459;50.836;19.138;2023-11-18T01:15:10;4.47;;;2.63;;
74974;SDS011;68459;50.836;19.138;2023-11-18T01:18:14;5.07;;;2.53;;
74974;SDS011;68459;50.836;19.138;2023-11-18T01:21:20;4.28;;;2.65;;
74974;SDS011;68459;50.836;19.138;2023-11-18T01:24:24;3.03;;;2.00;;
74974;SDS011;68459;50.836;19.138;2023-11-18T01:27:30;3.78;;;2.20;;
74974;SDS011;68459;50.836;19.138;2023-11-18T01:30:35;3.97;;;2.13;;
74974;SDS011;68459;50.836;19.138;2023-11-18T01:33:39;4.77;;;2.20;;
74974;SDS011;68459;50.836;19.138;2023-11-18T01:36:43;4.50;;;2.15;;
74974;SDS011;68459;50.836;19.138;2023-11-18T01:39:48;4.22;;;2.60;;
74974;SDS011;68459;50.836;19.138;2023-11-18T01:42:54;3.17;;;2.00;;
74974;SDS011;68459;50.836;19.138;2023-11-18T01:45:59;4.43;;;2.40;;
74974;SDS011;68459;50.836;19.138;2023-11-18T01:49:09;3.55;;;2.33;;
74974;SDS011;68459;50.836;19.138;2023-11-18T01:52:13;3.05;;;2.10;;
74974;SDS011;68459;50.836;19.138;2023-11-18T01:55:17;5.55;;;2.83;;
74974;SDS011;68459;50.836;19.138;2023-11-18T01:58:22;5.28;;;3.00;;
74974;SDS011;68459;50.836;19.138;2023-11-18T02:01:27;5.75;;;3.20;;
74974;SDS011;68459;50.836;19.138;2023-11-18T02:04:33;5.57;;;3.07;;
74974;SDS011;68459;50.836;19.138;2023-11-18T02:07:37;7.05;;;3.90;;
74974;SDS011;68459;50.836;19.138;2023-11-18T02:10:53;6.10;;;3.88;;
74974;SDS011;68459;50.836;19.138;2023-11-18T02:14:06;4.97;;;3.17;;
74974;SDS011;68459;50.836;19.138;2023-11-18T02:17:19;6.05;;;3.40;;
74974;SDS011;68459;50.836;19.138;2023-11-18T02:20:26;4.32;;;2.75;;
74974;SDS011;68459;50.836;19.138;2023-11-18T02:23:31;2.47;;;1.40;;
74974;SDS011;68459;50.836;19.138;2023-11-18T02:26:37;2.70;;;1.75;;
74974;SDS011;68459;50.836;19.138;2023-11-18T02:29:41;2.75;;;1.50;;
74974;SDS011;68459;50.836;19.138;2023-11-18T02:32:51;2.28;;;1.08;;
74974;SDS011;68459;50.836;19.138;2023-11-18T02:36:06;2.07;;;1.10;;
74974;SDS011;68459;50.836;19.138;2023-11-18T02:39:20;2.22;;;1.13;;
74974;SDS011;68459;50.836;19.138;2023-11-18T02:42:32;2.35;;;1.08;;
74974;SDS011;68459;50.836;19.138;2023-11-18T02:45:39;2.10;;;1.10;;
74974;SDS011;68459;50.836;19.138;2023-11-18T02:48:45;2.55;;;1.10;;
74974;SDS011;68459;50.836;19.138;2023-11-18T02:51:49;1.80;;;0.90;;
74974;SDS011;68459;50.836;19.138;2023-11-18T02:54:53;1.60;;;0.90;;
74974;SDS011;68459;50.836;19.138;2023-11-18T02:57:58;3.08;;;1.10;;
74974;SDS011;68459;50.836;19.138;2023-11-18T03:01:04;2.30;;;1.08;;
74974;SDS011;68459;50.836;19.138;2023-11-18T03:04:12;2.55;;;1.30;;
74974;SDS011;68459;50.836;19.138;2023-11-18T03:07:17;1.90;;;0.90;;
74974;SDS011;68459;50.836;19.138;2023-11-18T03:10:20;2.08;;;1.23;;
74974;SDS011;68459;50.836;19.138;2023-11-18T03:13:26;2.47;;;1.10;;
74974;SDS011;68459;50.836;19.138;2023-11-18T03:16:30;3.63;;;1.67;;
74974;SDS011;68459;50.836;19.138;2023-11-18T03:19:34;2.63;;;1.50;;
74974;SDS011;68459;50.836;19.138;2023-11-18T03:22:38;3.83;;;1.42;;
74974;SDS011;68459;50.836;19.138;2023-11-18T03:25:42;3.05;;;1.55;;
74974;SDS011;68459;50.836;19.138;2023-11-18T03:28:49;4.32;;;1.77;;
74974;SDS011;68459;50.836;19.138;2023-11-18T03:31:53;3.22;;;1.70;;
74974;SDS011;68459;50.836;19.138;2023-11-18T03:34:57;3.72;;;1.73;;
74974;SDS011;68459;50.836;19.138;2023-11-18T03:38:02;2.77;;;1.67;;
74974;SDS011;68459;50.836;19.138;2023-11-18T03:41:06;2.80;;;1.80;;
74974;SDS011;68459;50.836;19.138;2023-11-18T03:44:12;4.93;;;2.13;;
74974;SDS011;68459;50.836;19.138;2023-11-18T03:47:16;3.20;;;1.90;;
74974;SDS011;68459;50.836;19.138;2023-11-18T03:50:20;3.60;;;1.93;;
74974;SDS011;68459;50.836;19.138;2023-11-18T03:53:23;4.00;;;2.25;;
74974;SDS011;68459;50.836;19.138;2023-11-18T03:56:27;2.92;;;1.80;;
74974;SDS011;68459;50.836;19.138;2023-11-18T03:59:33;3.33;;;1.73;;
74974;SDS011;68459;50.836;19.138;2023-11-18T04:02:36;2.53;;;1.52;;
74974;SDS011;68459;50.836;19.138;2023-11-18T04:05:42;2.70;;;1.35;;
74974;SDS011;68459;50.836;19.138;2023-11-18T04:08:45;3.43;;;1.27;;
74974;SDS011;68459;50.836;19.138;2023-11-18T04:11:50;4.45;;;1.90;;
74974;SDS011;68459;50.836;19.138;2023-11-18T04:14:55;3.42;;;1.58;;
74974;SDS011;68459;50.836;19.138;2023-11-18T04:17:59;4.40;;;1.63;;
74974;SDS011;68459;50.836;19.138;2023-11-18T04:21:03;2.40;;;1.40;;
74974;SDS011;68459;50.836;19.138;2023-11-18T04:24:08;2.85;;;1.40;;
74974;SDS011;68459;50.836;19.138;2023-11-18T04:27:12;3.28;;;1.88;;
74974;SDS011;68459;50.836;19.138;2023-11-18T04:30:17;4.75;;;1.73;;
74974;SDS011;68459;50.836;19.138;2023-11-18T04:33:22;3.38;;;1.60;;
74974;SDS011;68459;50.836;19.138;2023-11-18T04:36:27;3.70;;;1.30;;
74974;SDS011;68459;50.836;19.138;2023-11-18T04:39:31;2.70;;;1.40;;
74974;SDS011;68459;50.836;19.138;2023-11-18T04:42:35;3.10;;;1.80;;
74974;SDS011;68459;50.836;19.138;2023-11-18T04:45:42;2.22;;;1.20;;
74974;SDS011;68459;50.836;19.138;2023-11-18T04:48:46;2.43;;;1.30;;
74974;SDS011;68459;50.836;19.138;2023-11-18T04:51:50;3.10;;;1.40;;
74974;SDS011;68459;50.836;19.138;2023-11-18T04:54:54;2.83;;;1.50;;
74974;SDS011;68459;50.836;19.138;2023-11-18T04:57:58;2.63;;;1.27;;
74974;SDS011;68459;50.836;19.138;2023-11-18T05:01:03;3.22;;;1.80;;
74974;SDS011;68459;50.836;19.138;2023-11-18T05:04:07;3.40;;;1.60;;
74974;SDS011;68459;50.836;19.138;2023-11-18T05:07:11;3.65;;;2.00;;
74974;SDS011;68459;50.836;19.138;2023-11-18T05:10:16;3.30;;;2.23;;
74974;SDS011;68459;50.836;19.138;2023-11-18T05:13:20;4.57;;;2.50;;
74974;SDS011;68459;50.836;19.138;2023-11-18T05:16:25;4.15;;;2.10;;
74974;SDS011;68459;50.836;19.138;2023-11-18T05:19:29;5.20;;;2.20;;
74974;SDS011;68459;50.836;19.138;2023-11-18T05:22:33;4.63;;;2.67;;
74974;SDS011;68459;50.836;19.138;2023-11-18T05:25:39;6.20;;;3.15;;
74974;SDS011;68459;50.836;19.138;2023-11-18T05:28:46;6.57;;;2.53;;
74974;SDS011;68459;50.836;19.138;2023-11-18T05:31:52;6.47;;;2.70;;
74974;SDS011;68459;50.836;19.138;2023-11-18T05:34:56;4.18;;;2.50;;
74974;SDS011;68459;50.836;19.138;2023-11-18T05:38:00;7.65;;;3.28;;
74974;SDS011;68459;50.836;19.138;2023-11-18T05:41:05;5.73;;;3.23;;
74974;SDS011;68459;50.836;19.138;2023-11-18T05:44:18;9.38;;;3.60;;
74974;SDS011;68459;50.836;19.138;2023-11-18T05:47:25;7.90;;;3.63;;
74974;SDS011;68459;50.836;19.138;2023-11-18T05:50:29;6.77;;;3.77;;
74974;SDS011;68459;50.836;19.138;2023-11-18T05:53:33;12.60;;;4.25;;
74974;SDS011;68459;50.836;19.138;2023-11-18T05:56:37;7.47;;;3.95;;
74974;SDS011;68459;50.836;19.138;2023-11-18T05:59:41;9.15;;;4.88;;
74974;SDS011;68459;50.836;19.138;2023-11-18T06:02:46;9.50;;;5.28;;
74974;SDS011;68459;50.836;19.138;2023-11-18T06:05:51;11.20;;;5.20;;
74974;SDS011;68459;50.836;19.138;2023-11-18T06:08:55;13.00;;;5.57;;
74974;SDS011;68459;50.836;19.138;2023-11-18T06:12:06;14.63;;;5.83;;
74974;SDS011;68459;50.836;19.138;2023-11-18T06:15:10;15.15;;;6.82;;
74974;SDS011;68459;50.836;19.138;2023-11-18T06:18:18;12.32;;;6.40;;
74974;SDS011;68459;50.836;19.138;2023-11-18T06:21:22;16.00;;;7.57;;
74974;SDS011;68459;50.836;19.138;2023-11-18T06:24:30;16.25;;;7.75;;
74974;SDS011;68459;50.836;19.138;2023-11-18T06:27:34;18.05;;;7.45;;
74974;SDS011;68459;50.836;19.138;2023-11-18T06:30:38;16.15;;;7.43;;
74974;SDS011;68459;50.836;19.138;2023-11-18T06:33:43;14.55;;;6.53;;
74974;SDS011;68459;50.836;19.138;2023-11-18T06:36:49;13.77;;;6.75;;
74974;SDS011;68459;50.836;19.138;2023-11-18T06:39:53;17.88;;;6.90;;
74974;SDS011;68459;50.836;19.138;2023-11-18T06:42:57;13.80;;;5.57;;
74974;SDS011;68459;50.836;19.138;2023-11-18T06:46:03;9.48;;;4.55;;
74974;SDS011;68459;50.836;19.138;2023-11-18T06:49:09;10.25;;;4.05;;
74974;SDS011;68459;50.836;19.138;2023-11-18T06:52:17;7.83;;;3.87;;
74974;SDS011;68459;50.836;19.138;2023-11-18T06:55:21;6.22;;;3.53;;
74974;SDS011;68459;50.836;19.138;2023-11-18T06:58:24;8.25;;;3.33;;
74974;SDS011;68459;50.836;19.138;2023-11-18T07:01:29;6.07;;;3.08;;
74974;SDS011;68459;50.836;19.138;2023-11-18T07:04:34;5.47;;;3.10;;
74974;SDS011;68459;50.836;19.138;2023-11-18T07:07:40;5.93;;;3.15;;
74974;SDS011;68459;50.836;19.138;2023-11-18T07:10:45;6.78;;;3.03;;
74974;SDS011;68459;50.836;19.138;2023-11-18T07:13:50;8.53;;;3.63;;
74974;SDS011;68459;50.836;19.138;2023-11-18T07:16:58;6.28;;;3.30;;
74974;SDS011;68459;50.836;19.138;2023-11-18T07:20:04;6.65;;;3.83;;
74974;SDS011;68459;50.836;19.138;2023-11-18T07:23:08;6.63;;;3.37;;
74974;SDS011;68459;50.836;19.138;2023-11-18T07:26:12;7.78;;;3.75;;
74974;SDS011;68459;50.836;19.138;2023-11-18T07:29:16;5.88;;;3.30;;
74974;SDS011;68459;50.836;19.138;2023-11-18T07:32:21;6.90;;;3.75;;
74974;SDS011;68459;50.836;19.138;2023-11-18T07:35:26;6.07;;;3.67;;
74974;SDS011;68459;50.836;19.138;2023-11-18T07:38:29;7.28;;;3.85;;
74974;SDS011;68459;50.836;19.138;2023-11-18T07:41:33;6.78;;;3.67;;
74974;SDS011;68459;50.836;19.138;2023-11-18T07:44:38;7.97;;;3.43;;
74974;SDS011;68459;50.836;19.138;2023-11-18T07:47:41;5.80;;;3.72;;
74974;SDS011;68459;50.836;19.138;2023-11-18T07:50:47;5.97;;;3.15;;
74974;SDS011;68459;50.836;19.138;2023-11-18T07:53:50;6.93;;;3.43;;
74974;SDS011;68459;50.836;19.138;2023-11-18T07:56:55;7.93;;;4.05;;
74974;SDS011;68459;50.836;19.138;2023-11-18T07:59:59;4.97;;;3.08;;
74974;SDS011;68459;50.836;19.138;2023-11-18T08:03:14;6.50;;;2.67;;
74974;SDS011;68459;50.836;19.138;2023-11-18T08:06:19;5.30;;;3.15;;
74974;SDS011;68459;50.836;19.138;2023-11-18T08:09:24;5.57;;;2.63;;
74974;SDS011;68459;50.836;19.138;2023-11-18T08:12:28;5.75;;;3.05;;
74974;SDS011;68459;50.836;19.138;2023-11-18T08:15:31;3.63;;;2.53;;
74974;SDS011;68459;50.836;19.138;2023-11-18T08:18:36;7.13;;;2.88;;
74974;SDS011;68459;50.836;19.138;2023-11-18T08:21:41;4.82;;;3.08;;
74974;SDS011;68459;50.836;19.138;2023-11-18T08:24:44;5.53;;;2.90;;
74974;SDS011;68459;50.836;19.138;2023-11-18T08:27:51;4.47;;;3.03;;
74974;SDS011;68459;50.836;19.138;2023-11-18T08:30:55;5.90;;;3.38;;
74974;SDS011;68459;50.836;19.138;2023-11-18T08:33:58;5.43;;;2.75;;
74974;SDS011;68459;50.836;19.138;2023-11-18T08:37:03;4.18;;;2.42;;
74974;SDS011;68459;50.836;19.138;2023-11-18T08:40:07;4.70;;;2.80;;
74974;SDS011;68459;50.836;19.138;2023-11-18T08:43:16;4.70;;;2.45;;
74974;SDS011;68459;50.836;19.138;2023-11-18T08:46:20;3.90;;;2.30;;
74974;SDS011;68459;50.836;19.138;2023-11-18T08:49:23;4.30;;;2.30;;
74974;SDS011;68459;50.836;19.138;2023-11-18T08:52:29;4.43;;;2.25;;
74974;SDS011;68459;50.836;19.138;2023-11-18T08:55:32;5.07;;;2.43;;
74974;SDS011;68459;50.836;19.138;2023-11-18T08:58:45;5.00;;;2.38;;
74974;SDS011;68459;50.836;19.138;2023-11-18T09:01:51;6.75;;;2.47;;
74974;SDS011;68459;50.836;19.138;2023-11-18T09:04:58;4.88;;;2.45;;
74974;SDS011;68459;50.836;19.138;2023-11-18T09:08:03;4.18;;;2.17;;
74974;SDS011;68459;50.836;19.138;2023-11-18T09:11:08;3.80;;;2.10;;
74974;SDS011;68459;50.836;19.138;2023-11-18T09:14:16;3.60;;;2.10;;
74974;SDS011;68459;50.836;19.138;2023-11-18T09:17:21;3.43;;;1.97;;
74974;SDS011;68459;50.836;19.138;2023-11-18T09:20:25;4.15;;;2.10;;
74974;SDS011;68459;50.836;19.138;2023-11-18T09:23:30;2.80;;;2.00;;
74974;SDS011;68459;50.836;19.138;2023-11-18T09:26:36;3.10;;;2.03;;
74974;SDS011;68459;50.836;19.138;2023-11-18T09:29:39;3.15;;;2.10;;
74974;SDS011;68459;50.836;19.138;2023-11-18T09:32:43;4.05;;;2.10;;
74974;SDS011;68459;50.836;19.138;2023-11-18T09:35:49;3.65;;;2.10;;
74974;SDS011;68459;50.836;19.138;2023-11-18T09:38:55;4.65;;;2.03;;
74974;SDS011;68459;50.836;19.138;2023-11-18T09:41:59;4.18;;;2.15;;
74974;SDS011;68459;50.836;19.138;2023-11-18T09:45:04;4.60;;;2.47;;
74974;SDS011;68459;50.836;19.138;2023-11-18T09:48:16;4.47;;;2.30;;
74974;SDS011;68459;50.836;19.138;2023-11-18T09:51:27;4.60;;;2.30;;
74974;SDS011;68459;50.836;19.138;2023-11-18T09:54:44;4.97;;;2.30;;
74974;SDS011;68459;50.836;19.138;2023-11-18T09:57:59;3.70;;;2.37;;
74974;SDS011;68459;50.836;19.138;2023-11-18T10:01:15;3.90;;;2.40;;
74974;SDS011;68459;50.836;19.138;2023-11-18T10:04:23;3.65;;;2.17;;
74974;SDS011;68459;50.836;19.138;2023-11-18T10:07:29;5.40;;;3.20;;
74974;SDS011;68459;50.836;19.138;2023-11-18T10:10:39;4.13;;;2.30;;
74974;SDS011;68459;50.836;19.138;2023-11-18T10:13:47;3.97;;;2.08;;
74974;SDS011;68459;50.836;19.138;2023-11-18T10:16:51;4.93;;;2.10;;
74974;SDS011;68459;50.836;19.138;2023-11-18T10:19:56;2.87;;;2.10;;
74974;SDS011;68459;50.836;19.138;2023-11-18T10:23:05;5.30;;;2.40;;
74974;SDS011;68459;50.836;19.138;2023-11-18T10:26:14;3.85;;;2.05;;
74974;SDS011;68459;50.836;19.138;2023-11-18T10:29:17;4.87;;;2.80;;
74974;SDS011;68459;50.836;19.138;2023-11-18T10:32:21;5.05;;;2.72;;
74974;SDS011;68459;50.836;19.138;2023-11-18T10:35:29;5.13;;;2.58;;
74974;SDS011;68459;50.836;19.138;2023-11-18T10:38:37;4.63;;;2.53;;
74974;SDS011;68459;50.836;19.138;2023-11-18T10:41:46;4.82;;;2.55;;
74974;SDS011;68459;50.836;19.138;2023-11-18T10:44:54;4.45;;;2.60;;
74974;SDS011;68459;50.836;19.138;2023-11-18T10:47:59;5.05;;;2.72;;
74974;SDS011;68459;50.836;19.138;2023-11-18T10:51:04;3.43;;;2.10;;
74974;SDS011;68459;50.836;19.138;2023-11-18T10:54:09;4.78;;;2.72;;
74974;SDS011;68459;50.836;19.138;2023-11-18T10:57:21;6.18;;;3.03;;
74974;SDS011;68459;50.836;19.138;2023-11-18T11:00:25;5.50;;;3.30;;
74974;SDS011;68459;50.836;19.138;2023-11-18T11:03:35;5.60;;;2.88;;
74974;SDS011;68459;50.836;19.138;2023-11-18T11:06:57;4.90;;;3.00;;
74974;SDS011;68459;50.836;19.138;2023-11-18T11:10:03;4.22;;;2.63;;
74974;SDS011;68459;50.836;19.138;2023-11-18T11:13:09;5.22;;;2.85;;
74974;SDS011;68459;50.836;19.138;2023-11-18T11:16:14;5.50;;;2.63;;
74974;SDS011;68459;50.836;19.138;2023-11-18T11:19:24;4.30;;;2.60;;
74974;SDS011;68459;50.836;19.138;2023-11-18T11:22:45;4.40;;;2.83;;
74974;SDS011;68459;50.836;19.138;2023-11-18T11:26:13;4.20;;;2.60;;
74974;SDS011;68459;50.836;19.138;2023-11-18T11:29:35;6.50;;;2.78;;
74974;SDS011;68459;50.836;19.138;2023-11-18T11:32:50;4.83;;;2.60;;
74974;SDS011;68459;50.836;19.138;2023-11-18T11:35:56;6.18;;;2.95;;
74974;SDS011;68459;50.836;19.138;2023-11-18T11:39:05;6.38;;;2.75;;
74974;SDS011;68459;50.836;19.138;2023-11-18T11:42:21;5.47;;;3.20;;
74974;SDS011;68459;50.836;19.138;2023-11-18T11:45:28;6.10;;;2.92;;
74974;SDS011;68459;50.836;19.138;2023-11-18T11:48:32;5.65;;;3.20;;
74974;SDS011;68459;50.836;19.138;2023-11-18T11:51:40;6.53;;;3.58;;
74974;SDS011;68459;50.836;19.138;2023-11-18T11:54:52;6.23;;;3.30;;
74974;SDS011;68459;50.836;19.138;2023-11-18T11:58:18;5.85;;;3.03;;
74974;SDS011;68459;50.836;19.138;2023-11-18T12:01:35;5.38;;;3.22;;
74974;SDS011;68459;50.836;19.138;2023-11-18T12:04:39;6.07;;;3.60;;
74974;SDS011;68459;50.836;19.138;2023-11-18T12:07:44;6.47;;;3.33;;
74974;SDS011;68459;50.836;19.138;2023-11-18T12:10:51;7.30;;;3.90;;
74974;SDS011;68459;50.836;19.138;2023-11-18T12:14:01;6.38;;;2.97;;
74974;SDS011;68459;50.836;19.138;2023-11-18T12:17:16;5.93;;;3.38;;
74974;SDS011;68459;50.836;19.138;2023-11-18T12:20:39;6.78;;;3.53;;
74974;SDS011;68459;50.836;19.138;2023-11-18T12:30:53;7.13;;;3.78;;
74974;SDS011;68459;50.836;19.138;2023-11-18T12:34:09;5.93;;;3.40;;
74974;SDS011;68459;50.836;19.138;2023-11-18T12:37:18;5.57;;;3.27;;
74974;SDS011;68459;50.836;19.138;2023-11-18T12:41:05;5.22;;;3.33;;
74974;SDS011;68459;50.836;19.138;2023-11-18T12:44:23;5.85;;;3.28;;
74974;SDS011;68459;50.836;19.138;2023-11-18T12:47:34;5.03;;;3.13;;
74974;SDS011;68459;50.836;19.138;2023-11-18T12:50:45;4.90;;;3.00;;
74974;SDS011;68459;50.836;19.138;2023-11-18T12:53:49;7.53;;;3.45;;
74974;SDS011;68459;50.836;19.138;2023-11-18T12:56:55;5.32;;;3.00;;
74974;SDS011;68459;50.836;19.138;2023-11-18T12:59:59;4.53;;;3.23;;
74974;SDS011;68459;50.836;19.138;2023-11-18T13:03:03;6.25;;;3.40;;
74974;SDS011;68459;50.836;19.138;2023-11-18T13:06:14;5.75;;;3.20;;
74974;SDS011;68459;50.836;19.138;2023-11-18T13:09:17;5.17;;;3.53;;
74974;SDS011;68459;50.836;19.138;2023-11-18T13:12:28;6.70;;;4.03;;
74974;SDS011;68459;50.836;19.138;2023-11-18T13:15:32;6.38;;;3.88;;
74974;SDS011;68459;50.836;19.138;2023-11-18T13:18:42;5.97;;;3.80;;
74974;SDS011;68459;50.836;19.138;2023-11-18T13:21:52;7.22;;;3.63;;
74974;SDS011;68459;50.836;19.138;2023-11-18T13:25:02;6.95;;;3.88;;
74974;SDS011;68459;50.836;19.138;2023-11-18T13:28:07;7.05;;;3.88;;
74974;SDS011;68459;50.836;19.138;2023-11-18T13:31:13;6.77;;;4.03;;
74974;SDS011;68459;50.836;19.138;2023-11-18T13:34:18;7.85;;;4.18;;
74974;SDS011;68459;50.836;19.138;2023-11-18T13:37:25;5.82;;;3.78;;
74974;SDS011;68459;50.836;19.138;2023-11-18T13:40:41;8.57;;;4.77;;
74974;SDS011;68459;50.836;19.138;2023-11-18T13:43:46;6.60;;;4.45;;
74974;SDS011;68459;50.836;19.138;2023-11-18T13:46:50;8.45;;;4.40;;
74974;SDS011;68459;50.836;19.138;2023-11-18T13:49:54;7.53;;;4.10;;
74974;SDS011;68459;50.836;19.138;2023-11-18T13:53:01;6.90;;;4.97;;
74974;SDS011;68459;50.836;19.138;2023-11-18T13:56:07;7.05;;;4.35;;
74974;SDS011;68459;50.836;19.138;2023-11-18T13:59:11;9.10;;;5.15;;
74974;SDS011;68459;50.836;19.138;2023-11-18T14:02:16;8.17;;;4.57;;
74974;SDS011;68459;50.836;19.138;2023-11-18T14:05:20;6.80;;;4.20;;
74974;SDS011;68459;50.836;19.138;2023-11-18T14:08:27;10.05;;;4.70;;
74974;SDS011;68459;50.836;19.138;2023-11-18T14:11:31;8.80;;;4.97;;
74974;SDS011;68459;50.836;19.138;2023-11-18T14:14:36;10.48;;;5.63;;
74974;SDS011;68459;50.836;19.138;2023-11-18T14:17:40;10.77;;;5.07;;
74974;SDS011;68459;50.836;19.138;2023-11-18T14:20:48;9.25;;;5.28;;
74974;SDS011;68459;50.836;19.138;2023-11-18T14:23:53;9.55;;;5.18;;
74974;SDS011;68459;50.836;19.138;2023-11-18T14:27:02;8.45;;;4.38;;
74974;SDS011;68459;50.836;19.138;2023-11-18T14:30:07;8.60;;;4.57;;
74974;SDS011;68459;50.836;19.138;2023-11-18T14:33:12;7.40;;;4.43;;
74974;SDS011;68459;50.836;19.138;2023-11-18T14:36:16;8.63;;;4.65;;
74974;SDS011;68459;50.836;19.138;2023-11-18T14:39:22;8.80;;;4.40;;
74974;SDS011;68459;50.836;19.138;2023-11-18T14:42:27;8.70;;;4.33;;
74974;SDS011;68459;50.836;19.138;2023-11-18T14:45:31;11.32;;;5.30;;
74974;SDS011;68459;50.836;19.138;2023-11-18T14:48:34;10.50;;;5.75;;
74974;SDS011;68459;50.836;19.138;2023-11-18T14:51:38;8.57;;;5.25;;
74974;SDS011;68459;50.836;19.138;2023-11-18T14:54:44;9.65;;;5.53;;
74974;SDS011;68459;50.836;19.138;2023-11-18T14:57:48;10.90;;;6.13;;
74974;SDS011;68459;50.836;19.138;2023-11-18T15:00:52;11.57;;;5.88;;
74974;SDS011;68459;50.836;19.138;2023-11-18T15:03:59;11.23;;;5.73;;
74974;SDS011;68459;50.836;19.138;2023-11-18T15:07:06;10.05;;;5.28;;
74974;SDS011;68459;50.836;19.138;2023-11-18T15:10:11;12.82;;;6.88;;
74974;SDS011;68459;50.836;19.138;2023-11-18T15:13:15;12.40;;;5.93;;
74974;SDS011;68459;50.836;19.138;2023-11-18T15:16:20;14.90;;;6.80;;
74974;SDS011;68459;50.836;19.138;2023-11-18T15:19:24;12.02;;;6.47;;
74974;SDS011;68459;50.836;19.138;2023-11-18T15:22:29;12.18;;;6.70;;
74974;SDS011;68459;50.836;19.138;2023-11-18T15:25:34;9.10;;;5.57;;
74974;SDS011;68459;50.836;19.138;2023-11-18T15:28:38;10.67;;;5.83;;
74974;SDS011;68459;50.836;19.138;2023-11-18T15:31:42;10.55;;;5.63;;
74974;SDS011;68459;50.836;19.138;2023-11-18T15:34:47;12.13;;;6.33;;
74974;SDS011;68459;50.836;19.138;2023-11-18T15:37:50;12.85;;;6.57;;
74974;SDS011;68459;50.836;19.138;2023-11-18T15:40:56;9.93;;;5.78;;
74974;SDS011;68459;50.836;19.138;2023-11-18T15:44:00;13.37;;;5.77;;
74974;SDS011;68459;50.836;19.138;2023-11-18T15:47:05;11.77;;;6.60;;
74974;SDS011;68459;50.836;19.138;2023-11-18T15:50:11;13.77;;;7.05;;
74974;SDS011;68459;50.836;19.138;2023-11-18T15:53:18;13.10;;;6.65;;
74974;SDS011;68459;50.836;19.138;2023-11-18T15:56:24;12.20;;;6.90;;
74974;SDS011;68459;50.836;19.138;2023-11-18T15:59:28;14.27;;;6.65;;
74974;SDS011;68459;50.836;19.138;2023-11-18T16:02:32;10.88;;;5.40;;
74974;SDS011;68459;50.836;19.138;2023-11-18T16:05:36;10.47;;;6.40;;
74974;SDS011;68459;50.836;19.138;2023-11-18T16:08:40;10.75;;;6.78;;
74974;SDS011;68459;50.836;19.138;2023-11-18T16:11:47;15.35;;;6.97;;
74974;SDS011;68459;50.836;19.138;2023-11-18T16:14:51;11.77;;;6.53;;
74974;SDS011;68459;50.836;19.138;2023-11-18T16:17:56;12.82;;;6.72;;
74974;SDS011;68459;50.836;19.138;2023-11-18T16:21:02;12.57;;;6.55;;
74974;SDS011;68459;50.836;19.138;2023-11-18T16:24:07;12.98;;;7.00;;
74974;SDS011;68459;50.836;19.138;2023-11-18T16:27:13;13.85;;;6.93;;
74974;SDS011;68459;50.836;19.138;2023-11-18T16:30:18;16.63;;;7.95;;
74974;SDS011;68459;50.836;19.138;2023-11-18T16:33:26;14.93;;;7.05;;
74974;SDS011;68459;50.836;19.138;2023-11-18T16:36:32;16.27;;;7.93;;
74974;SDS011;68459;50.836;19.138;2023-11-18T16:39:35;14.02;;;6.85;;
74974;SDS011;68459;50.836;19.138;2023-11-18T16:42:40;15.60;;;6.97;;
74974;SDS011;68459;50.836;19.138;2023-11-18T16:45:44;15.87;;;7.87;;
74974;SDS011;68459;50.836;19.138;2023-11-18T16:48:51;15.73;;;7.95;;
74974;SDS011;68459;50.836;19.138;2023-11-18T16:51:56;14.27;;;7.38;;
74974;SDS011;68459;50.836;19.138;2023-11-18T16:55:03;13.30;;;7.03;;
74974;SDS011;68459;50.836;19.138;2023-11-18T16:58:09;12.30;;;6.90;;
74974;SDS011;68459;50.836;19.138;2023-11-18T17:01:13;16.00;;;6.53;;
74974;SDS011;68459;50.836;19.138;2023-11-18T17:04:18;16.35;;;6.88;;
74974;SDS011;68459;50.836;19.138;2023-11-18T17:07:22;12.40;;;6.37;;
74974;SDS011;68459;50.836;19.138;2023-11-18T17:10:28;12.75;;;7.05;;
74974;SDS011;68459;50.836;19.138;2023-11-18T17:13:34;12.93;;;6.43;;
74974;SDS011;68459;50.836;19.138;2023-11-18T17:16:38;13.30;;;6.70;;
74974;SDS011;68459;50.836;19.138;2023-11-18T17:19:43;14.73;;;6.82;;
74974;SDS011;68459;50.836;19.138;2023-11-18T17:22:46;15.88;;;7.80;;
74974;SDS011;68459;50.836;19.138;2023-11-18T17:25:51;13.85;;;7.85;;
74974;SDS011;68459;50.836;19.138;2023-11-18T17:28:58;14.13;;;7.72;;
74974;SDS011;68459;50.836;19.138;2023-11-18T17:32:03;14.73;;;7.72;;
74974;SDS011;68459;50.836;19.138;2023-11-18T17:35:07;13.38;;;7.07;;
74974;SDS011;68459;50.836;19.138;2023-11-18T17:38:15;17.30;;;8.17;;
74974;SDS011;68459;50.836;19.138;2023-11-18T17:41:18;14.48;;;7.43;;
74974;SDS011;68459;50.836;19.138;2023-11-18T17:44:25;11.98;;;6.82;;
74974;SDS011;68459;50.836;19.138;2023-11-18T17:47:29;13.83;;;6.07;;
74974;SDS011;68459;50.836;19.138;2023-11-18T17:50:36;10.70;;;6.30;;
74974;SDS011;68459;50.836;19.138;2023-11-18T17:53:40;10.10;;;6.13;;
74974;SDS011;68459;50.836;19.138;2023-11-18T17:56:44;14.35;;;6.57;;
74974;SDS011;68459;50.836;19.138;2023-11-18T17:59:49;13.32;;;6.40;;
74974;SDS011;68459;50.836;19.138;2023-11-18T18:02:55;12.73;;;6.78;;
74974;SDS011;68459;50.836;19.138;2023-11-18T18:05:59;12.93;;;6.65;;
74974;SDS011;68459;50.836;19.138;2023-11-18T18:09:12;12.90;;;6.57;;
74974;SDS011;68459;50.836;19.138;2023-11-18T18:12:17;10.20;;;5.65;;
74974;SDS011;68459;50.836;19.138;2023-11-18T18:15:22;10.70;;;5.20;;
74974;SDS011;68459;50.836;19.138;2023-11-18T18:18:28;9.77;;;5.63;;
74974;SDS011;68459;50.836;19.138;2023-11-18T18:21:32;19.35;;;9.10;;
74974;SDS011;68459;50.836;19.138;2023-11-18T18:24:35;9.55;;;5.53;;
74974;SDS011;68459;50.836;19.138;2023-11-18T18:27:39;9.07;;;5.93;;